sensor_id;sensor_type;location;lat;lon;timestamp;P1;durP1;ratioP1;P2;durP2;ratioP2
21806;SDS011;11065;50.786;7.840;2023-11-19T00:00:27;0.70;;;0.37;;
21806;SDS011;11065;50.786;7.840;2023-11-19T00:02:56;0.70;;;0.30;;
21806;SDS011;11065;50.786;7.840;2023-11-19T00:05:24;0.70;;;0.40;;
21806;SDS011;11065;50.786;7.840;2023-11-19T00:07:52;0.53;;;0.43;;
21806;SDS011;11065;50.786;7.840;2023-11-19T00:10:20;1.30;;;0.43;;
21806;SDS011;11065;50.786;7.840;2023-11-19T00:12:49;0.40;;;0.30;;
21806;SDS011;11065;50.786;7.840;2023-11-19T00:15:17;0.70;;;0.30;;
21806;SDS011;11065;50.786;7.840;2023-11-19T00:17:46;0.53;;;0.30;;
21806;SDS011;11065;50.786;7.840;2023-11-19T00:20:17;1.17;;;0.40;;
21806;SDS011;11065;50.786;7.840;2023-11-19T00:22:48;0.43;;;0.30;;
21806;SDS011;11065;50.786;7.840;2023-11-19T00:25:18;0.40;;;0.33;;
21806;SDS011;11065;50.786;7.840;2023-11-19T00:27:47;0.50;;;0.30;;
21806;SDS011;11065;50.786;7.840;2023-11-19T00:30:16;0.47;;;0.40;;
21806;SDS011;11065;50.786;7.840;2023-11-19T00:32:44;0.50;;;0.23;;
21806;SDS011;11065;50.786;7.840;2023-11-19T00:35:12;1.33;;;0.37;;
21806;SDS011;11065;50.786;7.840;2023-11-19T00:37:43;0.60;;;0.40;;
21806;SDS011;11065;50.786;7.840;2023-11-19T00:40:12;1.40;;;0.40;;
21806;SDS011;11065;50.786;7.840;2023-11-19T00:42:42;1.30;;;0.40;;
21806;SDS011;11065;50.786;7.840;2023-11-19T00:45:10;1.63;;;0.40;;
21806;SDS011;11065;50.786;7.840;2023-11-19T00:47:39;0.60;;;0.40;;
21806;SDS011;11065;50.786;7.840;2023-11-19T00:50:08;2.87;;;0.60;;
21806;SDS011;11065;50.786;7.840;2023-11-19T00:52:37;0.50;;;0.40;;
21806;SDS011;11065;50.786;7.840;2023-11-19T00:55:07;0.80;;;0.63;;
21806;SDS011;11065;50.786;7.840;2023-11-19T00:57:35;0.63;;;0.40;;
21806;SDS011;11065;50.786;7.840;2023-11-19T01:00:03;0.30;;;0.20;;
21806;SDS011;11065;50.786;7.840;2023-11-19T01:02:36;0.60;;;0.30;;
21806;SDS011;11065;50.786;7.840;2023-11-19T01:05:04;0.33;;;0.20;;
21806;SDS011;11065;50.786;7.840;2023-11-19T01:07:35;0.30;;;0.20;;
21806;SDS011;11065;50.786;7.840;2023-11-19T01:10:03;0.67;;;0.33;;
21806;SDS011;11065;50.786;7.840;2023-11-19T01:12:33;0.67;;;0.40;;
21806;SDS011;11065;50.786;7.840;2023-11-19T01:15:04;1.60;;;0.30;;
21806;SDS011;11065;50.786;7.840;2023-11-19T01:17:33;0.80;;;0.43;;
21806;SDS011;11065;50.786;7.840;2023-11-19T01:20:01;0.50;;;0.30;;
21806;SDS011;11065;50.786;7.840;2023-11-19T01:22:32;1.37;;;0.40;;
21806;SDS011;11065;50.786;7.840;2023-11-19T01:25:00;4.73;;;0.40;;
21806;SDS011;11065;50.786;7.840;2023-11-19T01:27:31;0.60;;;0.37;;
21806;SDS011;11065;50.786;7.840;2023-11-19T01:30:01;1.63;;;0.27;;
21806;SDS011;11065;50.786;7.840;2023-11-19T01:32:30;0.20;;;0.20;;
21806;SDS011;11065;50.786;7.840;2023-11-19T01:34:58;0.20;;;0.20;;
21806;SDS011;11065;50.786;7.840;2023-11-19T01:37:28;0.67;;;0.30;;
21806;SDS011;11065;50.786;7.840;2023-11-19T01:39:57;0.63;;;0.30;;
21806;SDS011;11065;50.786;7.840;2023-11-19T01:42:26;0.20;;;0.20;;
21806;SDS011;11065;50.786;7.840;2023-11-19T01:45:01;0.73;;;0.20;;
21806;SDS011;11065;50.786;7.840;2023-11-19T01:47:33;0.53;;;0.30;;
21806;SDS011;11065;50.786;7.840;2023-11-19T01:50:03;0.60;;;0.40;;
21806;SDS011;11065;50.786;7.840;2023-11-19T01:52:34;0.53;;;0.20;;
21806;SDS011;11065;50.786;7.840;2023-11-19T01:55:04;0.37;;;0.23;;
21806;SDS011;11065;50.786;7.840;2023-11-19T01:57:34;0.23;;;0.20;;
21806;SDS011;11065;50.786;7.840;2023-11-19T02:00:06;0.67;;;0.30;;
21806;SDS011;11065;50.786;7.840;2023-11-19T02:02:42;0.50;;;0.23;;
21806;SDS011;11065;50.786;7.840;2023-11-19T02:05:11;0.27;;;0.20;;
21806;SDS011;11065;50.786;7.840;2023-11-19T02:07:40;1.80;;;0.20;;
21806;SDS011;11065;50.786;7.840;2023-11-19T02:10:08;0.30;;;0.20;;
21806;SDS011;11065;50.786;7.840;2023-11-19T02:12:40;0.73;;;0.20;;
21806;SDS011;11065;50.786;7.840;2023-11-19T02:15:11;0.30;;;0.23;;
21806;SDS011;11065;50.786;7.840;2023-11-19T02:17:39;0.47;;;0.27;;
21806;SDS011;11065;50.786;7.840;2023-11-19T02:20:07;0.43;;;0.40;;
21806;SDS011;11065;50.786;7.840;2023-11-19T02:22:38;0.17;;;0.17;;
21806;SDS011;11065;50.786;7.840;2023-11-19T02:25:07;0.10;;;0.10;;
21806;SDS011;11065;50.786;7.840;2023-11-19T02:27:42;0.97;;;0.10;;
21806;SDS011;11065;50.786;7.840;2023-11-19T02:30:13;1.10;;;0.13;;
21806;SDS011;11065;50.786;7.840;2023-11-19T02:32:41;0.50;;;0.23;;
21806;SDS011;11065;50.786;7.840;2023-11-19T02:35:09;0.47;;;0.20;;
21806;SDS011;11065;50.786;7.840;2023-11-19T02:37:37;0.30;;;0.20;;
21806;SDS011;11065;50.786;7.840;2023-11-19T02:40:06;1.33;;;0.20;;
21806;SDS011;11065;50.786;7.840;2023-11-19T02:42:35;0.20;;;0.20;;
21806;SDS011;11065;50.786;7.840;2023-11-19T02:45:05;1.13;;;0.20;;
21806;SDS011;11065;50.786;7.840;2023-11-19T02:47:37;0.50;;;0.30;;
21806;SDS011;11065;50.786;7.840;2023-11-19T02:50:05;1.63;;;0.40;;
21806;SDS011;11065;50.786;7.840;2023-11-19T02:52:40;0.30;;;0.20;;
21806;SDS011;11065;50.786;7.840;2023-11-19T02:55:08;0.10;;;0.10;;
21806;SDS011;11065;50.786;7.840;2023-11-19T02:57:39;0.77;;;0.20;;
21806;SDS011;11065;50.786;7.840;2023-11-19T03:00:14;0.40;;;0.20;;
21806;SDS011;11065;50.786;7.840;2023-11-19T03:02:43;0.20;;;0.20;;
21806;SDS011;11065;50.786;7.840;2023-11-19T03:05:13;1.00;;;0.13;;
21806;SDS011;11065;50.786;7.840;2023-11-19T03:07:42;0.60;;;0.30;;
21806;SDS011;11065;50.786;7.840;2023-11-19T03:10:11;0.57;;;0.20;;
21806;SDS011;11065;50.786;7.840;2023-11-19T03:12:40;0.40;;;0.20;;
21806;SDS011;11065;50.786;7.840;2023-11-19T03:15:08;0.30;;;0.13;;
21806;SDS011;11065;50.786;7.840;2023-11-19T03:17:39;1.27;;;0.30;;
21806;SDS011;11065;50.786;7.840;2023-11-19T03:20:09;1.10;;;0.30;;
21806;SDS011;11065;50.786;7.840;2023-11-19T03:22:41;0.70;;;0.30;;
21806;SDS011;11065;50.786;7.840;2023-11-19T03:25:10;2.27;;;0.40;;
21806;SDS011;11065;50.786;7.840;2023-11-19T03:27:39;0.97;;;0.20;;
21806;SDS011;11065;50.786;7.840;2023-11-19T03:30:09;0.97;;;0.20;;
21806;SDS011;11065;50.786;7.840;2023-11-19T03:32:38;0.50;;;0.30;;
21806;SDS011;11065;50.786;7.840;2023-11-19T03:35:07;0.33;;;0.20;;
21806;SDS011;11065;50.786;7.840;2023-11-19T03:37:36;1.27;;;0.27;;
21806;SDS011;11065;50.786;7.840;2023-11-19T03:40:04;1.07;;;0.20;;
21806;SDS011;11065;50.786;7.840;2023-11-19T03:42:33;3.17;;;0.20;;
21806;SDS011;11065;50.786;7.840;2023-11-19T03:45:01;1.07;;;0.20;;
21806;SDS011;11065;50.786;7.840;2023-11-19T03:47:30;0.50;;;0.20;;
21806;SDS011;11065;50.786;7.840;2023-11-19T03:49:59;1.47;;;0.30;;
21806;SDS011;11065;50.786;7.840;2023-11-19T03:52:29;1.20;;;0.40;;
21806;SDS011;11065;50.786;7.840;2023-11-19T03:55:08;0.80;;;0.30;;
21806;SDS011;11065;50.786;7.840;2023-11-19T03:57:37;0.57;;;0.30;;
21806;SDS011;11065;50.786;7.840;2023-11-19T04:00:06;1.47;;;0.30;;
21806;SDS011;11065;50.786;7.840;2023-11-19T04:02:39;1.90;;;0.50;;
21806;SDS011;11065;50.786;7.840;2023-11-19T04:05:09;0.40;;;0.20;;
21806;SDS011;11065;50.786;7.840;2023-11-19T04:07:37;1.80;;;0.40;;
21806;SDS011;11065;50.786;7.840;2023-11-19T04:10:05;0.50;;;0.20;;
21806;SDS011;11065;50.786;7.840;2023-11-19T04:12:33;0.97;;;0.30;;
21806;SDS011;11065;50.786;7.840;2023-11-19T04:15:03;0.40;;;0.20;;
21806;SDS011;11065;50.786;7.840;2023-11-19T04:17:32;0.83;;;0.20;;
21806;SDS011;11065;50.786;7.840;2023-11-19T04:20:00;1.00;;;0.40;;
21806;SDS011;11065;50.786;7.840;2023-11-19T04:22:30;2.23;;;0.30;;
21806;SDS011;11065;50.786;7.840;2023-11-19T04:24:58;1.50;;;0.40;;
21806;SDS011;11065;50.786;7.840;2023-11-19T04:27:27;0.60;;;0.30;;
21806;SDS011;11065;50.786;7.840;2023-11-19T04:29:56;1.70;;;0.20;;
21806;SDS011;11065;50.786;7.840;2023-11-19T04:32:25;0.30;;;0.27;;
21806;SDS011;11065;50.786;7.840;2023-11-19T04:34:53;1.30;;;0.40;;
21806;SDS011;11065;50.786;7.840;2023-11-19T04:37:21;1.77;;;0.30;;
21806;SDS011;11065;50.786;7.840;2023-11-19T04:39:50;0.97;;;0.30;;
21806;SDS011;11065;50.786;7.840;2023-11-19T04:42:18;0.87;;;0.30;;
21806;SDS011;11065;50.786;7.840;2023-11-19T04:44:46;0.60;;;0.20;;
21806;SDS011;11065;50.786;7.840;2023-11-19T04:47:14;2.43;;;0.30;;
21806;SDS011;11065;50.786;7.840;2023-11-19T04:49:42;1.90;;;0.30;;
21806;SDS011;11065;50.786;7.840;2023-11-19T04:52:10;0.90;;;0.20;;
21806;SDS011;11065;50.786;7.840;2023-11-19T04:54:41;1.03;;;0.20;;
21806;SDS011;11065;50.786;7.840;2023-11-19T04:57:10;1.20;;;0.30;;
21806;SDS011;11065;50.786;7.840;2023-11-19T04:59:39;3.03;;;0.50;;
21806;SDS011;11065;50.786;7.840;2023-11-19T05:02:08;0.87;;;0.30;;
21806;SDS011;11065;50.786;7.840;2023-11-19T05:04:36;0.70;;;0.20;;
21806;SDS011;11065;50.786;7.840;2023-11-19T05:07:04;0.93;;;0.30;;
21806;SDS011;11065;50.786;7.840;2023-11-19T05:09:33;1.07;;;0.40;;
21806;SDS011;11065;50.786;7.840;2023-11-19T05:12:01;1.90;;;0.30;;
21806;SDS011;11065;50.786;7.840;2023-11-19T05:14:30;1.63;;;0.40;;
21806;SDS011;11065;50.786;7.840;2023-11-19T05:16:58;1.60;;;0.20;;
21806;SDS011;11065;50.786;7.840;2023-11-19T05:19:26;0.47;;;0.27;;
21806;SDS011;11065;50.786;7.840;2023-11-19T05:21:54;1.83;;;0.37;;
21806;SDS011;11065;50.786;7.840;2023-11-19T05:24:23;3.27;;;0.60;;
21806;SDS011;11065;50.786;7.840;2023-11-19T05:26:51;1.00;;;0.30;;
21806;SDS011;11065;50.786;7.840;2023-11-19T05:29:19;2.60;;;0.50;;
21806;SDS011;11065;50.786;7.840;2023-11-19T05:31:48;0.73;;;0.30;;
21806;SDS011;11065;50.786;7.840;2023-11-19T05:34:16;1.43;;;0.40;;
21806;SDS011;11065;50.786;7.840;2023-11-19T05:36:45;2.50;;;0.40;;
21806;SDS011;11065;50.786;7.840;2023-11-19T05:39:13;2.63;;;0.40;;
21806;SDS011;11065;50.786;7.840;2023-11-19T05:41:41;1.40;;;0.40;;
21806;SDS011;11065;50.786;7.840;2023-11-19T05:44:09;1.73;;;0.50;;
21806;SDS011;11065;50.786;7.840;2023-11-19T05:46:36;1.50;;;0.60;;
21806;SDS011;11065;50.786;7.840;2023-11-19T05:49:10;3.90;;;0.40;;
21806;SDS011;11065;50.786;7.840;2023-11-19T05:51:39;1.57;;;0.40;;
21806;SDS011;11065;50.786;7.840;2023-11-19T05:54:08;2.00;;;0.30;;
21806;SDS011;11065;50.786;7.840;2023-11-19T05:56:36;1.70;;;0.33;;
21806;SDS011;11065;50.786;7.840;2023-11-19T05:59:05;2.00;;;0.50;;
21806;SDS011;11065;50.786;7.840;2023-11-19T06:01:41;1.67;;;0.50;;
21806;SDS011;11065;50.786;7.840;2023-11-19T06:04:10;2.73;;;0.40;;
21806;SDS011;11065;50.786;7.840;2023-11-19T06:06:38;1.90;;;0.50;;
21806;SDS011;11065;50.786;7.840;2023-11-19T06:09:06;2.27;;;0.60;;
21806;SDS011;11065;50.786;7.840;2023-11-19T06:11:38;1.73;;;0.70;;
21806;SDS011;11065;50.786;7.840;2023-11-19T06:14:06;3.63;;;0.80;;
21806;SDS011;11065;50.786;7.840;2023-11-19T06:16:34;4.23;;;0.60;;
21806;SDS011;11065;50.786;7.840;2023-11-19T06:19:03;3.53;;;0.80;;
21806;SDS011;11065;50.786;7.840;2023-11-19T06:21:32;3.23;;;0.60;;
21806;SDS011;11065;50.786;7.840;2023-11-19T06:24:02;4.00;;;0.90;;
21806;SDS011;11065;50.786;7.840;2023-11-19T06:26:30;2.63;;;0.63;;
21806;SDS011;11065;50.786;7.840;2023-11-19T06:28:58;3.27;;;0.60;;
21806;SDS011;11065;50.786;7.840;2023-11-19T06:31:26;5.53;;;0.90;;
21806;SDS011;11065;50.786;7.840;2023-11-19T06:33:54;2.30;;;0.60;;
21806;SDS011;11065;50.786;7.840;2023-11-19T06:36:22;2.87;;;0.80;;
21806;SDS011;11065;50.786;7.840;2023-11-19T06:38:51;3.53;;;0.50;;
21806;SDS011;11065;50.786;7.840;2023-11-19T06:41:19;2.77;;;0.53;;
21806;SDS011;11065;50.786;7.840;2023-11-19T06:43:47;2.77;;;0.70;;
21806;SDS011;11065;50.786;7.840;2023-11-19T06:46:15;2.77;;;0.60;;
21806;SDS011;11065;50.786;7.840;2023-11-19T06:48:44;3.27;;;0.87;;
21806;SDS011;11065;50.786;7.840;2023-11-19T06:51:12;5.47;;;1.03;;
21806;SDS011;11065;50.786;7.840;2023-11-19T06:53:40;4.67;;;1.20;;
21806;SDS011;11065;50.786;7.840;2023-11-19T06:56:20;6.50;;;0.90;;
21806;SDS011;11065;50.786;7.840;2023-11-19T06:58:48;4.60;;;1.00;;
21806;SDS011;11065;50.786;7.840;2023-11-19T07:01:16;3.70;;;0.73;;
21806;SDS011;11065;50.786;7.840;2023-11-19T07:03:45;2.97;;;0.93;;
21806;SDS011;11065;50.786;7.840;2023-11-19T07:06:13;3.37;;;0.80;;
21806;SDS011;11065;50.786;7.840;2023-11-19T07:08:42;4.23;;;0.90;;
21806;SDS011;11065;50.786;7.840;2023-11-19T07:11:11;4.67;;;0.80;;
21806;SDS011;11065;50.786;7.840;2023-11-19T07:13:41;5.33;;;1.20;;
21806;SDS011;11065;50.786;7.840;2023-11-19T07:16:09;4.27;;;1.03;;
21806;SDS011;11065;50.786;7.840;2023-11-19T07:18:37;3.57;;;1.23;;
21806;SDS011;11065;50.786;7.840;2023-11-19T07:21:05;4.20;;;1.30;;
21806;SDS011;11065;50.786;7.840;2023-11-19T07:23:36;5.07;;;1.23;;
21806;SDS011;11065;50.786;7.840;2023-11-19T07:26:05;5.77;;;1.23;;
21806;SDS011;11065;50.786;7.840;2023-11-19T07:28:35;7.00;;;1.17;;
21806;SDS011;11065;50.786;7.840;2023-11-19T07:31:05;5.57;;;1.30;;
21806;SDS011;11065;50.786;7.840;2023-11-19T07:33:34;7.17;;;1.53;;
21806;SDS011;11065;50.786;7.840;2023-11-19T07:36:02;7.33;;;1.30;;
21806;SDS011;11065;50.786;7.840;2023-11-19T07:38:31;8.10;;;1.70;;
21806;SDS011;11065;50.786;7.840;2023-11-19T07:40:59;5.13;;;1.67;;
21806;SDS011;11065;50.786;7.840;2023-11-19T07:43:27;4.97;;;1.30;;
21806;SDS011;11065;50.786;7.840;2023-11-19T07:45:55;8.30;;;1.70;;
21806;SDS011;11065;50.786;7.840;2023-11-19T07:48:26;8.30;;;1.83;;
21806;SDS011;11065;50.786;7.840;2023-11-19T07:50:54;9.93;;;1.73;;
21806;SDS011;11065;50.786;7.840;2023-11-19T07:53:23;6.23;;;1.60;;
21806;SDS011;11065;50.786;7.840;2023-11-19T07:55:52;7.23;;;1.50;;
21806;SDS011;11065;50.786;7.840;2023-11-19T07:58:20;12.33;;;2.27;;
21806;SDS011;11065;50.786;7.840;2023-11-19T08:00:48;7.57;;;1.70;;
21806;SDS011;11065;50.786;7.840;2023-11-19T08:03:16;7.50;;;1.77;;
21806;SDS011;11065;50.786;7.840;2023-11-19T08:05:46;8.53;;;1.70;;
21806;SDS011;11065;50.786;7.840;2023-11-19T08:08:15;8.10;;;1.60;;
21806;SDS011;11065;50.786;7.840;2023-11-19T08:10:43;6.97;;;1.50;;
21806;SDS011;11065;50.786;7.840;2023-11-19T08:13:11;8.53;;;1.53;;
21806;SDS011;11065;50.786;7.840;2023-11-19T08:15:39;7.60;;;1.77;;
21806;SDS011;11065;50.786;7.840;2023-11-19T08:18:07;6.90;;;1.73;;
21806;SDS011;11065;50.786;7.840;2023-11-19T08:20:35;7.20;;;1.57;;
21806;SDS011;11065;50.786;7.840;2023-11-19T08:23:05;7.03;;;1.40;;
21806;SDS011;11065;50.786;7.840;2023-11-19T08:25:32;6.83;;;2.00;;
21806;SDS011;11065;50.786;7.840;2023-11-19T08:28:00;8.57;;;2.03;;
21806;SDS011;11065;50.786;7.840;2023-11-19T08:30:29;8.30;;;1.50;;
21806;SDS011;11065;50.786;7.840;2023-11-19T08:32:57;9.97;;;1.73;;
21806;SDS011;11065;50.786;7.840;2023-11-19T08:35:29;8.80;;;1.90;;
21806;SDS011;11065;50.786;7.840;2023-11-19T08:37:57;8.43;;;1.63;;
21806;SDS011;11065;50.786;7.840;2023-11-19T08:40:26;5.37;;;1.57;;
21806;SDS011;11065;50.786;7.840;2023-11-19T08:42:56;8.53;;;1.87;;
21806;SDS011;11065;50.786;7.840;2023-11-19T08:45:24;6.83;;;2.10;;
21806;SDS011;11065;50.786;7.840;2023-11-19T08:47:52;8.97;;;1.80;;
21806;SDS011;11065;50.786;7.840;2023-11-19T08:50:20;8.60;;;2.30;;
21806;SDS011;11065;50.786;7.840;2023-11-19T08:52:49;5.87;;;1.47;;
21806;SDS011;11065;50.786;7.840;2023-11-19T08:55:16;8.23;;;1.93;;
21806;SDS011;11065;50.786;7.840;2023-11-19T08:57:46;8.60;;;1.63;;
21806;SDS011;11065;50.786;7.840;2023-11-19T09:00:14;7.73;;;1.60;;
21806;SDS011;11065;50.786;7.840;2023-11-19T09:02:42;8.40;;;2.00;;
21806;SDS011;11065;50.786;7.840;2023-11-19T09:05:10;9.77;;;2.20;;
21806;SDS011;11065;50.786;7.840;2023-11-19T09:07:39;11.80;;;2.40;;
21806;SDS011;11065;50.786;7.840;2023-11-19T09:10:07;12.87;;;2.40;;
21806;SDS011;11065;50.786;7.840;2023-11-19T09:12:37;7.50;;;2.03;;
21806;SDS011;11065;50.786;7.840;2023-11-19T09:15:07;12.60;;;2.37;;
21806;SDS011;11065;50.786;7.840;2023-11-19T09:17:36;9.87;;;1.83;;
21806;SDS011;11065;50.786;7.840;2023-11-19T09:20:05;10.50;;;2.20;;
21806;SDS011;11065;50.786;7.840;2023-11-19T09:22:34;13.63;;;2.83;;
21806;SDS011;11065;50.786;7.840;2023-11-19T09:25:02;6.73;;;1.90;;
21806;SDS011;11065;50.786;7.840;2023-11-19T09:27:31;9.50;;;2.17;;
21806;SDS011;11065;50.786;7.840;2023-11-19T09:29:59;9.97;;;1.60;;
21806;SDS011;11065;50.786;7.840;2023-11-19T09:32:30;11.37;;;2.30;;
21806;SDS011;11065;50.786;7.840;2023-11-19T09:34:58;16.73;;;2.37;;
21806;SDS011;11065;50.786;7.840;2023-11-19T09:37:28;8.83;;;2.10;;
21806;SDS011;11065;50.786;7.840;2023-11-19T09:39:56;9.00;;;2.53;;
21806;SDS011;11065;50.786;7.840;2023-11-19T09:42:24;7.93;;;2.33;;
21806;SDS011;11065;50.786;7.840;2023-11-19T09:44:53;6.43;;;1.70;;
21806;SDS011;11065;50.786;7.840;2023-11-19T09:47:22;7.27;;;1.80;;
21806;SDS011;11065;50.786;7.840;2023-11-19T09:49:52;12.30;;;2.07;;
21806;SDS011;11065;50.786;7.840;2023-11-19T09:52:23;9.43;;;2.37;;
21806;SDS011;11065;50.786;7.840;2023-11-19T09:54:51;11.03;;;2.10;;
21806;SDS011;11065;50.786;7.840;2023-11-19T09:57:19;11.97;;;2.57;;
21806;SDS011;11065;50.786;7.840;2023-11-19T09:59:47;9.80;;;2.80;;
21806;SDS011;11065;50.786;7.840;2023-11-19T10:02:17;10.37;;;2.33;;
21806;SDS011;11065;50.786;7.840;2023-11-19T10:04:46;8.63;;;2.10;;
21806;SDS011;11065;50.786;7.840;2023-11-19T10:07:17;8.00;;;1.80;;
21806;SDS011;11065;50.786;7.840;2023-11-19T10:09:45;10.23;;;2.67;;
21806;SDS011;11065;50.786;7.840;2023-11-19T10:12:14;13.57;;;2.63;;
21806;SDS011;11065;50.786;7.840;2023-11-19T10:14:43;13.10;;;2.43;;
21806;SDS011;11065;50.786;7.840;2023-11-19T10:17:10;10.47;;;2.50;;
21806;SDS011;11065;50.786;7.840;2023-11-19T10:19:39;9.97;;;2.13;;
21806;SDS011;11065;50.786;7.840;2023-11-19T10:22:07;11.17;;;2.40;;
21806;SDS011;11065;50.786;7.840;2023-11-19T10:24:37;10.07;;;2.60;;
21806;SDS011;11065;50.786;7.840;2023-11-19T10:27:14;8.50;;;2.10;;
21806;SDS011;11065;50.786;7.840;2023-11-19T10:29:43;14.67;;;2.83;;
21806;SDS011;11065;50.786;7.840;2023-11-19T10:32:13;11.80;;;2.50;;
21806;SDS011;11065;50.786;7.840;2023-11-19T10:34:52;11.00;;;2.20;;
21806;SDS011;11065;50.786;7.840;2023-11-19T10:37:32;17.23;;;2.80;;
21806;SDS011;11065;50.786;7.840;2023-11-19T10:40:04;10.43;;;2.10;;
21806;SDS011;11065;50.786;7.840;2023-11-19T10:42:32;9.40;;;2.17;;
21806;SDS011;11065;50.786;7.840;2023-11-19T10:45:01;11.83;;;2.20;;
21806;SDS011;11065;50.786;7.840;2023-11-19T10:47:30;10.17;;;2.03;;
21806;SDS011;11065;50.786;7.840;2023-11-19T10:50:02;12.13;;;2.40;;
21806;SDS011;11065;50.786;7.840;2023-11-19T10:52:30;7.17;;;1.90;;
21806;SDS011;11065;50.786;7.840;2023-11-19T10:55:04;10.43;;;2.57;;
21806;SDS011;11065;50.786;7.840;2023-11-19T10:57:36;9.97;;;2.37;;
21806;SDS011;11065;50.786;7.840;2023-11-19T11:00:07;9.40;;;2.37;;
21806;SDS011;11065;50.786;7.840;2023-11-19T11:02:40;8.80;;;2.17;;
21806;SDS011;11065;50.786;7.840;2023-11-19T11:05:09;11.47;;;2.37;;
21806;SDS011;11065;50.786;7.840;2023-11-19T11:07:39;11.63;;;2.27;;
21806;SDS011;11065;50.786;7.840;2023-11-19T11:10:10;10.87;;;2.10;;
21806;SDS011;11065;50.786;7.840;2023-11-19T11:12:40;10.60;;;2.60;;
21806;SDS011;11065;50.786;7.840;2023-11-19T11:15:10;10.73;;;2.50;;
21806;SDS011;11065;50.786;7.840;2023-11-19T11:17:39;9.80;;;2.40;;
21806;SDS011;11065;50.786;7.840;2023-11-19T11:20:09;11.43;;;2.10;;
21806;SDS011;11065;50.786;7.840;2023-11-19T11:22:40;12.27;;;2.57;;
21806;SDS011;11065;50.786;7.840;2023-11-19T11:25:22;12.13;;;2.40;;
21806;SDS011;11065;50.786;7.840;2023-11-19T11:28:12;9.67;;;1.87;;
21806;SDS011;11065;50.786;7.840;2023-11-19T11:31:00;9.47;;;2.03;;
21806;SDS011;11065;50.786;7.840;2023-11-19T11:33:40;9.23;;;2.23;;
21806;SDS011;11065;50.786;7.840;2023-11-19T11:36:29;9.33;;;2.23;;
21806;SDS011;11065;50.786;7.840;2023-11-19T11:38:59;10.20;;;2.17;;
21806;SDS011;11065;50.786;7.840;2023-11-19T11:41:29;11.57;;;2.20;;
21806;SDS011;11065;50.786;7.840;2023-11-19T11:43:57;11.63;;;2.40;;
21806;SDS011;11065;50.786;7.840;2023-11-19T11:49:24;7.87;;;1.90;;
21806;SDS011;11065;50.786;7.840;2023-11-19T11:52:03;13.40;;;2.30;;
21806;SDS011;11065;50.786;7.840;2023-11-19T11:54:31;12.13;;;2.70;;
21806;SDS011;11065;50.786;7.840;2023-11-19T11:57:03;10.53;;;2.20;;
21806;SDS011;11065;50.786;7.840;2023-11-19T11:59:48;8.97;;;2.57;;
21806;SDS011;11065;50.786;7.840;2023-11-19T12:02:17;9.83;;;2.43;;
21806;SDS011;11065;50.786;7.840;2023-11-19T12:04:47;10.23;;;2.67;;
21806;SDS011;11065;50.786;7.840;2023-11-19T12:07:16;8.87;;;2.00;;
21806;SDS011;11065;50.786;7.840;2023-11-19T12:09:51;11.27;;;2.60;;
21806;SDS011;11065;50.786;7.840;2023-11-19T12:12:23;11.30;;;2.00;;
21806;SDS011;11065;50.786;7.840;2023-11-19T12:15:01;9.10;;;2.00;;
21806;SDS011;11065;50.786;7.840;2023-11-19T12:17:41;13.37;;;3.03;;
21806;SDS011;11065;50.786;7.840;2023-11-19T12:20:19;8.97;;;2.23;;
21806;SDS011;11065;50.786;7.840;2023-11-19T12:22:52;7.00;;;2.40;;
21806;SDS011;11065;50.786;7.840;2023-11-19T12:25:21;10.57;;;2.30;;
21806;SDS011;11065;50.786;7.840;2023-11-19T12:27:51;10.47;;;2.47;;
21806;SDS011;11065;50.786;7.840;2023-11-19T12:30:21;10.53;;;2.67;;
21806;SDS011;11065;50.786;7.840;2023-11-19T12:32:50;7.87;;;1.87;;
21806;SDS011;11065;50.786;7.840;2023-11-19T12:35:20;14.07;;;2.47;;
21806;SDS011;11065;50.786;7.840;2023-11-19T12:37:48;10.33;;;2.10;;
21806;SDS011;11065;50.786;7.840;2023-11-19T12:40:18;11.97;;;2.80;;
21806;SDS011;11065;50.786;7.840;2023-11-19T12:42:47;10.33;;;2.80;;
21806;SDS011;11065;50.786;7.840;2023-11-19T12:45:17;10.23;;;2.30;;
21806;SDS011;11065;50.786;7.840;2023-11-19T12:47:47;12.10;;;2.00;;
21806;SDS011;11065;50.786;7.840;2023-11-19T12:50:16;7.17;;;1.87;;
21806;SDS011;11065;50.786;7.840;2023-11-19T12:52:55;11.73;;;2.10;;
21806;SDS011;11065;50.786;7.840;2023-11-19T12:55:24;9.27;;;2.00;;
21806;SDS011;11065;50.786;7.840;2023-11-19T12:57:56;8.67;;;2.30;;
21806;SDS011;11065;50.786;7.840;2023-11-19T13:00:26;8.53;;;1.87;;
21806;SDS011;11065;50.786;7.840;2023-11-19T13:02:56;7.43;;;1.67;;
21806;SDS011;11065;50.786;7.840;2023-11-19T13:05:26;5.97;;;1.97;;
21806;SDS011;11065;50.786;7.840;2023-11-19T13:08:00;7.87;;;2.10;;
21806;SDS011;11065;50.786;7.840;2023-11-19T13:10:29;9.13;;;2.00;;
21806;SDS011;11065;50.786;7.840;2023-11-19T13:13:04;10.73;;;2.03;;
21806;SDS011;11065;50.786;7.840;2023-11-19T13:15:34;9.60;;;2.63;;
21806;SDS011;11065;50.786;7.840;2023-11-19T13:18:03;7.20;;;1.83;;
21806;SDS011;11065;50.786;7.840;2023-11-19T13:20:31;8.20;;;2.07;;
21806;SDS011;11065;50.786;7.840;2023-11-19T13:22:59;5.87;;;2.47;;
21806;SDS011;11065;50.786;7.840;2023-11-19T13:25:28;7.47;;;1.70;;
21806;SDS011;11065;50.786;7.840;2023-11-19T13:27:57;10.10;;;2.60;;
21806;SDS011;11065;50.786;7.840;2023-11-19T13:30:26;9.53;;;2.53;;
21806;SDS011;11065;50.786;7.840;2023-11-19T13:32:56;9.40;;;2.07;;
21806;SDS011;11065;50.786;7.840;2023-11-19T13:35:25;9.57;;;2.10;;
21806;SDS011;11065;50.786;7.840;2023-11-19T13:37:54;6.83;;;1.70;;
21806;SDS011;11065;50.786;7.840;2023-11-19T13:40:22;9.93;;;2.50;;
21806;SDS011;11065;50.786;7.840;2023-11-19T13:42:51;9.70;;;1.80;;
21806;SDS011;11065;50.786;7.840;2023-11-19T13:45:19;6.70;;;1.93;;
21806;SDS011;11065;50.786;7.840;2023-11-19T13:47:47;8.77;;;2.10;;
21806;SDS011;11065;50.786;7.840;2023-11-19T13:50:16;5.90;;;1.57;;
21806;SDS011;11065;50.786;7.840;2023-11-19T13:52:45;10.20;;;2.40;;
21806;SDS011;11065;50.786;7.840;2023-11-19T13:55:13;10.10;;;1.93;;
21806;SDS011;11065;50.786;7.840;2023-11-19T13:57:42;8.33;;;1.50;;
21806;SDS011;11065;50.786;7.840;2023-11-19T14:00:11;9.00;;;1.60;;
21806;SDS011;11065;50.786;7.840;2023-11-19T14:02:40;8.20;;;2.13;;
21806;SDS011;11065;50.786;7.840;2023-11-19T14:05:08;6.27;;;1.67;;
21806;SDS011;11065;50.786;7.840;2023-11-19T14:07:39;7.13;;;1.70;;
21806;SDS011;11065;50.786;7.840;2023-11-19T14:10:07;5.67;;;1.60;;
21806;SDS011;11065;50.786;7.840;2023-11-19T14:12:37;7.00;;;1.60;;
21806;SDS011;11065;50.786;7.840;2023-11-19T14:15:05;6.67;;;1.43;;
21806;SDS011;11065;50.786;7.840;2023-11-19T14:17:35;7.33;;;1.60;;
21806;SDS011;11065;50.786;7.840;2023-11-19T14:20:04;8.63;;;1.50;;
21806;SDS011;11065;50.786;7.840;2023-11-19T14:22:40;6.17;;;1.23;;
21806;SDS011;11065;50.786;7.840;2023-11-19T14:25:09;8.43;;;1.83;;
21806;SDS011;11065;50.786;7.840;2023-11-19T14:27:38;8.27;;;1.60;;
21806;SDS011;11065;50.786;7.840;2023-11-19T14:30:07;5.90;;;1.37;;
21806;SDS011;11065;50.786;7.840;2023-11-19T14:32:37;7.93;;;1.67;;
21806;SDS011;11065;50.786;7.840;2023-11-19T14:35:06;6.17;;;1.67;;
21806;SDS011;11065;50.786;7.840;2023-11-19T14:37:35;7.13;;;1.70;;
21806;SDS011;11065;50.786;7.840;2023-11-19T14:40:05;5.63;;;1.50;;
21806;SDS011;11065;50.786;7.840;2023-11-19T14:42:36;8.20;;;1.57;;
21806;SDS011;11065;50.786;7.840;2023-11-19T14:45:06;6.17;;;1.63;;
21806;SDS011;11065;50.786;7.840;2023-11-19T14:47:38;7.00;;;1.70;;
21806;SDS011;11065;50.786;7.840;2023-11-19T14:50:06;8.40;;;1.80;;
21806;SDS011;11065;50.786;7.840;2023-11-19T14:52:35;5.07;;;1.33;;
21806;SDS011;11065;50.786;7.840;2023-11-19T14:55:05;9.33;;;1.60;;
21806;SDS011;11065;50.786;7.840;2023-11-19T14:57:34;7.13;;;2.27;;
21806;SDS011;11065;50.786;7.840;2023-11-19T15:00:03;8.73;;;3.10;;
21806;SDS011;11065;50.786;7.840;2023-11-19T15:02:39;8.90;;;2.67;;